createdAt,value
2018-05-09T00:00:10.937Z,24.2
2018-05-09T00:01:01.215Z,24.2
2018-05-09T00:01:51.276Z,24.2
2018-05-09T00:02:41.879Z,24.2
2018-05-09T00:03:32.010Z,24.2
2018-05-09T00:04:21.753Z,24.1
2018-05-09T00:05:12.048Z,24.2
2018-05-09T00:06:02.151Z,24.2
2018-05-09T00:06:52.178Z,24.2
2018-05-09T00:07:41.976Z,24.2
2018-05-09T00:08:32.320Z,24.2
2018-05-09T00:09:21.562Z,24.2
2018-05-09T00:10:12.455Z,24.2
2018-05-09T00:11:02.248Z,24.2
2018-05-09T00:11:52.687Z,24.2
2018-05-09T00:12:42.357Z,24.2
2018-05-09T00:13:32.698Z,24.2
2018-05-09T00:14:22.770Z,24.2
2018-05-09T00:15:12.333Z,24.2
2018-05-09T00:16:02.614Z,24.2
2018-05-09T00:16:52.682Z,24.2
2018-05-09T00:17:43.032Z,24.1
2018-05-09T00:18:32.824Z,24.2
2018-05-09T00:19:22.593Z,24.1
2018-05-09T00:20:12.947Z,24.2
2018-05-09T00:21:03.290Z,24.2
2018-05-09T00:21:53.075Z,24.2
2018-05-09T00:22:43.449Z,24.1
2018-05-09T00:23:33.512Z,24.1
2018-05-09T00:24:23.287Z,24.1
2018-05-09T00:25:13.351Z,24.1
2018-05-09T00:26:03.124Z,24.2
2018-05-09T00:26:53.477Z,24.2
2018-05-09T00:27:42.970Z,24.1
2018-05-09T00:28:33.601Z,24.1
2018-05-09T00:29:23.131Z,24.1
2018-05-09T00:30:13.737Z,24.1
2018-05-09T00:31:03.789Z,24.2
2018-05-09T00:31:53.859Z,24.2
2018-05-09T00:32:43.677Z,24.1
2018-05-09T00:33:33.974Z,24.1
2018-05-09T00:34:24.283Z,24.2
2018-05-09T00:35:14.362Z,24.1
2018-05-09T00:36:04.166Z,24.1
2018-05-09T00:36:54.231Z,24.1
2018-05-09T00:37:44.022Z,24.1
2018-05-09T00:38:33.827Z,24.1
2018-05-09T00:39:24.408Z,24.2
2018-05-09T00:40:14.764Z,24.1
2018-05-09T00:41:04.569Z,24.1
2018-05-09T00:41:54.899Z,24.1
2018-05-09T00:42:44.685Z,24.1
2018-05-09T00:43:34.770Z,24.1
2018-05-09T00:44:25.105Z,24.1
2018-05-09T00:45:14.589Z,24.1
2018-05-09T00:46:05.309Z,24.1
2018-05-09T00:46:55.011Z,24.1
2018-05-09T00:47:45.359Z,24.1
2018-05-09T00:48:35.418Z,24.1
2018-05-09T00:49:25.496Z,24.1
2018-05-09T00:50:15.891Z,24.1
2018-05-09T00:51:05.054Z,24.1
2018-05-09T00:51:55.119Z,24.1
2018-05-09T00:52:45.846Z,24.1
2018-05-09T00:53:35.777Z,24.1
2018-05-09T00:54:25.584Z,24.1
2018-05-09T00:55:15.651Z,24.1
2018-05-09T00:56:05.993Z,24.1
2018-05-09T00:56:56.100Z,24.1
2018-05-09T00:57:45.853Z,24.1
2018-05-09T00:58:35.640Z,24.1
2018-05-09T00:59:25.727Z,24.1
2018-05-09T01:00:16.318Z,24.1
2018-05-09T01:01:06.066Z,24.1
2018-05-09T01:01:56.442Z,24.1
2018-05-09T01:02:46.226Z,24.1
2018-05-09T01:03:36.306Z,24.1
2018-05-09T01:04:26.338Z,24.1
2018-05-09T01:05:16.403Z,24.1
2018-05-09T01:06:06.758Z,24.1
2018-05-09T01:06:56.813Z,24.1
2018-05-09T01:07:46.614Z,24.1
2018-05-09T01:08:36.383Z,24.1
2018-05-09T01:09:27.020Z,24.1
2018-05-09T01:10:16.772Z,24.1
2018-05-09T01:11:07.134Z,24.1
2018-05-09T01:11:56.916Z,24.1
2018-05-09T01:12:46.695Z,24.1
2018-05-09T01:13:37.045Z,24.1
2018-05-09T01:14:27.400Z,24.1
2018-05-09T01:15:16.912Z,24.1
2018-05-09T01:16:07.522Z,24.1
2018-05-09T01:16:57.292Z,24.1
2018-05-09T01:17:47.667Z,24.1
2018-05-09T01:18:37.445Z,24.1
2018-05-09T01:19:27.522Z,24.1
2018-05-09T01:20:17.307Z,24.1
2018-05-09T01:21:07.911Z,24.1
2018-05-09T01:21:57.709Z,24.1
2018-05-09T01:22:47.475Z,24.1
2018-05-09T01:23:38.099Z,24.1
2018-05-09T01:24:27.954Z,24.1
2018-05-09T01:25:17.935Z,24.1
2018-05-09T01:26:07.793Z,24.1
2018-05-09T01:26:58.376Z,24.1
2018-05-09T01:27:48.152Z,24.1
2018-05-09T01:28:38.460Z,24.1
2018-05-09T01:29:28.025Z,24.1
2018-05-09T01:30:18.599Z,24.1
2018-05-09T01:31:08.382Z,24.1
2018-05-09T01:31:58.522Z,24.1
2018-05-09T01:32:48.807Z,24.1
2018-05-09T01:33:38.870Z,24.1
2018-05-09T01:34:28.999Z,24.1
2018-05-09T01:35:19.034Z,24.1
2018-05-09T01:36:08.766Z,24.1
2018-05-09T01:36:59.133Z,24.1
2018-05-09T01:37:48.909Z,24.1
2018-05-09T01:38:38.974Z,24.1
2018-05-09T01:39:29.080Z,24.1
2018-05-09T01:40:19.388Z,24.1
2018-05-09T01:41:08.614Z,24.1
2018-05-09T01:41:59.494Z,24.1
2018-05-09T01:42:49.294Z,24.1
2018-05-09T01:43:39.635Z,24.1
2018-05-09T01:44:28.866Z,24.1
2018-05-09T01:45:19.204Z,24.1
2018-05-09T01:46:09.568Z,24.1
2018-05-09T01:46:59.888Z,24.1
2018-05-09T01:47:49.959Z,24.1
2018-05-09T01:48:39.791Z,24.1
2018-05-09T01:49:29.816Z,24.1
2018-05-09T01:50:19.040Z,24.1
2018-05-09T01:51:09.649Z,24.1
2018-05-09T01:52:00.294Z,24.1
2018-05-09T01:52:50.051Z,24.1
2018-05-09T01:53:40.435Z,24.1
2018-05-09T01:54:30.469Z,24.1
2018-05-09T01:55:20.060Z,24.1
2018-05-09T01:56:10.607Z,24.1
2018-05-09T01:57:00.391Z,24.1
2018-05-09T01:57:50.269Z,24.1
2018-05-09T01:58:40.472Z,24.1
2018-05-09T01:59:30.611Z,24.1
2018-05-09T02:00:20.895Z,24.1
2018-05-09T02:01:10.963Z,24.1
2018-05-09T02:02:01.072Z,24.1
2018-05-09T02:02:51.102Z,24.1
2018-05-09T02:03:41.157Z,24.1
2018-05-09T02:04:30.939Z,24.1
2018-05-09T02:05:20.722Z,24.1
2018-05-09T02:06:12.244Z,24.1
2018-05-09T02:07:01.461Z,24.1
2018-05-09T02:07:51.481Z,24.1
2018-05-09T02:08:41.278Z,24.1
2018-05-09T02:09:31.325Z,24.1
2018-05-09T02:10:21.774Z,24.1
2018-05-09T02:11:11.741Z,24.1
2018-05-09T02:12:01.503Z,24.1
2018-05-09T02:12:51.884Z,24.1
2018-05-09T02:13:41.678Z,24.1
2018-05-09T02:14:31.723Z,24.1
2018-05-09T02:15:21.797Z,24.1
2018-05-09T02:16:11.892Z,24.1
2018-05-09T02:17:02.204Z,24.1
2018-05-09T02:17:52.009Z,24.1
2018-05-09T02:18:42.044Z,24.1
2018-05-09T02:19:32.368Z,24.1
2018-05-09T02:20:21.894Z,24.1
2018-05-09T02:21:12.511Z,24.1
2018-05-09T02:22:02.576Z,24.1
2018-05-09T02:22:52.615Z,24.1
2018-05-09T02:23:42.439Z,24.1
2018-05-09T02:24:32.763Z,24.1
2018-05-09T02:25:22.588Z,24.1
2018-05-09T02:26:12.900Z,24.1
2018-05-09T02:27:02.694Z,24.1
2018-05-09T02:27:53.037Z,24.1
2018-05-09T02:28:43.079Z,24.1
2018-05-09T02:29:32.596Z,24.1
2018-05-09T02:30:22.935Z,24.1
2018-05-09T02:31:14.074Z,24.1
2018-05-09T02:32:02.806Z,24.1
2018-05-09T02:32:53.148Z,24.1
2018-05-09T02:33:42.929Z,24.1
2018-05-09T04:37:19.801Z,23.9
2018-05-09T04:38:09.874Z,23.9
2018-05-09T04:38:59.615Z,23.9
2018-05-09T04:39:49.951Z,23.9
2018-05-09T04:40:40.022Z,23.9
2018-05-09T04:41:29.754Z,23.9
2018-05-09T04:42:19.864Z,23.9
2018-05-09T04:43:10.164Z,23.9
2018-05-09T04:43:59.669Z,23.9
2018-05-09T04:44:50.044Z,23.9
2018-05-09T04:45:40.128Z,23.9
2018-05-09T04:46:30.477Z,23.9
2018-05-09T04:47:20.548Z,23.9
2018-05-09T04:48:10.527Z,23.9
2018-05-09T04:49:00.601Z,23.9
2018-05-09T04:49:50.674Z,23.9
2018-05-09T04:50:40.719Z,23.9
2018-05-09T04:51:30.812Z,23.9
2018-05-09T04:52:20.858Z,23.9
2018-05-09T04:53:10.640Z,23.9
2018-05-09T04:54:00.963Z,23.9
2018-05-09T04:54:50.465Z,23.9
2018-05-09T04:55:42.690Z,23.9
2018-05-09T04:56:30.898Z,23.9
2018-05-09T04:57:20.645Z,23.9
2018-05-09T04:58:11.010Z,23.9
2018-05-09T04:59:01.092Z,23.9
2018-05-09T04:59:51.397Z,23.9
2018-05-09T05:00:41.487Z,23.9
2018-05-09T05:01:31.546Z,23.9
2018-05-09T05:02:21.326Z,23.9
2018-05-09T05:03:11.371Z,23.9
2018-05-09T05:04:01.730Z,23.9
2018-05-09T05:04:51.774Z,23.9
2018-05-09T05:05:41.873Z,23.9
2018-05-09T05:06:31.892Z,23.9
2018-05-09T05:07:21.702Z,23.9
2018-05-09T05:08:12.034Z,23.9
2018-05-09T05:09:02.098Z,23.9
2018-05-09T05:09:52.110Z,23.9
2018-05-09T05:10:41.909Z,23.9
2018-05-09T05:11:31.971Z,23.9
2018-05-09T05:12:21.248Z,23.9
2018-05-09T05:13:12.373Z,23.9
2018-05-09T05:14:02.177Z,23.9
2018-05-09T05:14:52.219Z,23.9
2018-05-09T05:15:42.964Z,23.9
2018-05-09T05:16:32.618Z,23.9
2018-05-09T05:17:22.192Z,23.9
2018-05-09T05:18:12.221Z,23.9
2018-05-09T05:19:02.275Z,23.9
2018-05-09T05:19:52.961Z,23.9
2018-05-09T05:20:42.659Z,23.9
2018-05-09T05:21:32.708Z,23.9
2018-05-09T05:22:22.776Z,23.9
2018-05-09T05:23:12.844Z,23.9
2018-05-09T05:24:02.931Z,23.9
2018-05-09T05:24:53.246Z,23.9
2018-05-09T05:25:43.361Z,23.9
2018-05-09T05:26:33.213Z,23.9
2018-05-09T05:27:23.186Z,23.9
2018-05-09T05:28:13.231Z,23.9
2018-05-09T05:29:03.320Z,23.9
2018-05-09T05:29:53.710Z,23.9
2018-05-09T05:30:43.702Z,23.9
2018-05-09T05:31:33.776Z,23.9
2018-05-09T05:32:23.542Z,23.9
2018-05-09T05:33:13.617Z,23.9
2018-05-09T05:34:03.629Z,23.9
2018-05-09T05:34:53.146Z,23.9
2018-05-09T05:35:44.038Z,23.9
2018-05-09T05:36:33.903Z,23.9
2018-05-09T05:37:24.167Z,23.9
2018-05-09T05:38:13.771Z,23.9
2018-05-09T05:39:04.307Z,23.9
2018-05-09T05:39:54.366Z,23.9
2018-05-09T05:40:44.420Z,23.9
2018-05-09T05:41:33.998Z,23.9
2018-05-09T05:42:24.273Z,23.9
2018-05-09T05:43:14.608Z,23.9
2018-05-09T05:44:04.686Z,23.9
2018-05-09T05:44:54.584Z,23.9
2018-05-09T05:45:44.556Z,23.9
2018-05-09T05:46:34.576Z,23.9
2018-05-09T05:47:24.640Z,23.9
2018-05-09T05:48:15.031Z,23.9
2018-05-09T05:49:04.285Z,23.9
2018-05-09T05:49:55.101Z,23.9
2018-05-09T05:50:45.193Z,23.9
2018-05-09T05:51:35.280Z,23.9
2018-05-09T05:52:25.039Z,23.9
2018-05-09T05:53:14.519Z,23.9
2018-05-09T05:54:05.166Z,23.9
2018-05-09T05:54:55.228Z,23.9
2018-05-09T05:55:45.555Z,23.9
2018-05-09T05:56:35.309Z,23.9
2018-05-09T05:57:25.382Z,23.9
2018-05-09T05:58:15.756Z,23.9
2018-05-09T05:59:05.791Z,23.9
2018-05-09T05:59:55.330Z,23.9
2018-05-09T06:00:45.925Z,23.9
2018-05-09T06:01:36.064Z,23.9
2018-05-09T06:02:25.776Z,23.9
2018-05-09T06:03:15.645Z,23.9
2018-05-09T06:04:05.893Z,23.9
2018-05-09T06:04:55.952Z,23.9
2018-05-09T06:05:46.047Z,23.9
2018-05-09T06:06:36.114Z,23.9
2018-05-09T06:07:25.944Z,23.9
2018-05-09T06:08:16.506Z,23.9
2018-05-09T06:09:05.777Z,24
2018-05-09T06:09:56.433Z,24.1
2018-05-09T06:10:46.123Z,24.2
2018-05-09T06:11:36.478Z,24.2
2018-05-09T06:12:26.832Z,24.2
2018-05-09T06:13:16.595Z,24.2
2018-05-09T06:14:06.944Z,24.2
2018-05-09T06:14:56.134Z,24.2
2018-05-09T06:15:46.490Z,24.2
2018-05-09T06:16:36.923Z,24.3
2018-05-09T06:17:26.945Z,24.3
2018-05-09T06:18:17.240Z,24.3
2018-05-09T06:19:07.051Z,24.4
2018-05-09T06:19:57.355Z,24.4
2018-05-09T06:20:47.189Z,24.5
2018-05-09T06:21:37.221Z,24.5
2018-05-09T06:22:27.024Z,24.6
2018-05-09T06:23:17.110Z,24.6
2018-05-09T06:24:08.707Z,24.6
2018-05-09T06:24:57.628Z,24.7
2018-05-09T06:25:47.821Z,24.8
2018-05-09T06:26:37.614Z,24.8
2018-05-09T06:27:27.974Z,24.9
2018-05-09T06:28:17.740Z,24.9
2018-05-09T06:29:07.821Z,25
2018-05-09T06:29:57.888Z,25.1
2018-05-09T06:30:48.206Z,25.1
2018-05-09T06:31:38.023Z,25.2
2018-05-09T06:32:28.043Z,25.3
2018-05-09T06:33:18.144Z,25.3
2018-05-09T06:34:08.093Z,25.4
2018-05-09T06:34:58.547Z,25.4
2018-05-09T06:35:48.039Z,25.6
2018-05-09T06:36:38.397Z,25.6
2018-05-09T06:37:28.727Z,25.7
2018-05-09T06:38:18.777Z,25.8
2018-05-09T06:39:08.353Z,25.8
2018-05-09T06:39:58.883Z,25.9
2018-05-09T06:40:48.773Z,25.9
2018-05-09T06:41:39.088Z,26.1
2018-05-09T06:42:28.790Z,26.1
2018-05-09T06:43:18.891Z,26.2
2018-05-09T06:44:08.394Z,26.3
2018-05-09T06:44:59.037Z,26.4
2018-05-09T06:45:48.789Z,26.4
2018-05-09T06:46:39.177Z,26.5
2018-05-09T06:47:29.196Z,26.6
2018-05-09T06:48:19.579Z,26.6
2018-05-09T06:49:09.326Z,26.8
2018-05-09T06:50:00.052Z,26.8
2018-05-09T06:50:49.753Z,26.9
2018-05-09T06:51:39.252Z,26.9
2018-05-09T06:52:29.314Z,27
2018-05-09T06:53:19.127Z,27.1
2018-05-09T06:54:08.970Z,27.2
2018-05-09T06:54:59.796Z,27.3
2018-05-09T06:55:49.565Z,27.4
2018-05-09T06:56:39.616Z,27.4
2018-05-09T06:57:29.698Z,27.5
2018-05-09T06:58:19.790Z,27.6
2018-05-09T06:59:10.912Z,27.7
2018-05-09T07:00:00.484Z,27.8
2018-05-09T07:01:40.348Z,27.9
2018-05-09T07:02:30.627Z,28
2018-05-09T07:03:20.698Z,28.1
2018-05-09T07:04:10.800Z,28.2
2018-05-09T07:05:00.558Z,28.3
2018-05-09T07:05:50.909Z,28.3
2018-05-09T07:06:43.785Z,28.4
2018-05-09T07:07:30.760Z,28.5
2018-05-09T07:08:20.813Z,28.6
2018-05-09T07:09:10.847Z,28.6
2018-05-09T07:10:00.629Z,28.8
2018-05-09T07:10:51.324Z,28.8
2018-05-09T07:11:40.521Z,28.9
2018-05-09T07:12:31.675Z,29
2018-05-09T07:13:21.194Z,29.1
2018-05-09T07:14:11.355Z,29.2
2018-05-09T07:15:01.563Z,29.3
2018-05-09T07:15:51.096Z,29.4
2018-05-09T07:16:41.705Z,29.4
2018-05-09T07:17:31.494Z,29.6
2018-05-09T07:18:21.841Z,29.6
2018-05-09T07:19:11.965Z,29.7
2018-05-09T07:20:01.679Z,29.8
2018-05-09T07:20:52.065Z,29.9
2018-05-09T07:21:41.531Z,29.9
2018-05-09T07:22:31.883Z,30
2018-05-09T07:23:22.219Z,30.1
2018-05-09T07:24:12.024Z,30.3
2018-05-09T07:25:02.081Z,30.3
2018-05-09T07:25:51.854Z,30.4
2018-05-09T07:26:42.480Z,30.5
2018-05-09T07:27:32.248Z,30.6
2018-05-09T07:28:22.345Z,30.6
2018-05-09T07:29:12.403Z,30.8
2018-05-09T07:30:02.749Z,30.9
2018-05-09T07:30:52.806Z,30.9
2018-05-09T07:31:42.837Z,31
2018-05-09T07:32:32.923Z,31.1
2018-05-09T07:33:23.008Z,31.3
2018-05-09T07:34:13.061Z,31.3
2018-05-09T07:35:03.124Z,31.4
2018-05-09T07:35:52.524Z,31.5
2018-05-09T07:36:42.998Z,31.6
2018-05-09T07:37:33.313Z,31.7
2018-05-09T07:38:22.531Z,31.8
2018-05-09T07:39:12.391Z,31.9
2018-05-09T07:40:03.510Z,32
2018-05-09T07:40:53.653Z,32.1
2018-05-09T07:41:42.877Z,32.2
2018-05-09T07:42:33.404Z,32.3
2018-05-09T07:43:23.748Z,32.4
2018-05-09T07:44:13.364Z,32.4
2018-05-09T07:45:03.634Z,32.6
2018-05-09T07:45:53.676Z,32.6
2018-05-09T07:46:44.012Z,32.8
2018-05-09T07:47:34.255Z,32.9
2018-05-09T07:48:23.590Z,32.9
2018-05-09T07:49:13.371Z,33.1
2018-05-09T07:50:03.706Z,33.1
2018-05-09T07:50:54.128Z,33.3
2018-05-09T07:51:44.102Z,33.3
2018-05-09T07:52:34.469Z,33.4
2018-05-09T07:53:24.052Z,33.5
2018-05-09T07:54:14.124Z,33.6
2018-05-09T07:55:03.916Z,33.8
2018-05-09T07:55:54.683Z,33.8
2018-05-09T07:56:44.705Z,33.9
2018-05-09T07:57:33.887Z,34
2018-05-09T07:58:24.931Z,34.1
2018-05-09T07:59:14.977Z,34.3
2018-05-09T08:00:05.068Z,34.3
2018-05-09T08:00:54.800Z,34.4
2018-05-09T08:01:44.878Z,34.5
2018-05-09T08:02:34.965Z,34.6
2018-05-09T08:03:24.357Z,34.7
2018-05-09T08:04:14.864Z,34.8
2018-05-09T08:05:04.942Z,34.9
2018-05-09T08:05:54.856Z,35
2018-05-09T08:06:44.797Z,35.1
2018-05-09T08:07:35.334Z,35.3
2018-05-09T08:08:25.691Z,35.3
2018-05-09T08:09:15.723Z,35.4
2018-05-09T08:10:05.580Z,35.6
2018-05-09T08:10:55.593Z,35.6
2018-05-09T08:11:45.936Z,35.8
2018-05-09T08:12:34.956Z,35.9
2018-05-09T08:13:25.524Z,35.9
2018-05-09T08:14:15.106Z,36.1
2018-05-09T08:15:05.457Z,36.2
2018-05-09T08:15:55.502Z,36.3
2018-05-09T08:16:45.672Z,36.4
2018-05-09T08:17:36.141Z,36.4
2018-05-09T08:18:25.696Z,36.6
2018-05-09T08:19:16.547Z,36.7
2018-05-09T08:20:05.828Z,36.8
2018-05-09T08:20:56.640Z,36.9
2018-05-09T08:21:46.702Z,37
2018-05-09T08:22:36.771Z,37.1
2018-05-09T08:23:26.863Z,37.2
2018-05-09T08:24:16.908Z,37.3
2018-05-09T08:25:07.264Z,37.4
2018-05-09T08:25:57.025Z,37.6
2018-05-09T08:26:45.762Z,37.6
2018-05-09T08:27:36.678Z,37.8
2018-05-09T08:28:26.279Z,37.8
2018-05-09T08:29:17.284Z,37.9
2018-05-09T08:30:07.468Z,38.1
2018-05-09T08:30:56.927Z,38.2
2018-05-09T08:31:46.942Z,38.3
2018-05-09T08:32:37.610Z,38.4
2018-05-09T08:33:27.354Z,38.5
2018-05-09T08:34:17.419Z,38.6
2018-05-09T08:35:07.770Z,38.7
2018-05-09T08:35:57.819Z,38.8
2018-05-09T08:36:48.290Z,38.9
2018-05-09T08:37:37.703Z,39
2018-05-09T08:38:27.676Z,39.1
2018-05-09T08:39:17.810Z,39.3
2018-05-09T08:40:08.175Z,39.4
2018-05-09T08:40:58.234Z,39.4
2018-05-09T08:41:47.994Z,39.6
2018-05-09T08:42:38.094Z,39.7
2018-05-09T08:43:29.526Z,39.8
2018-05-09T08:44:17.880Z,39.9
2018-05-09T08:45:08.274Z,40
2018-05-09T08:45:57.447Z,40.1
2018-05-09T08:46:48.335Z,40.2
2018-05-09T08:47:38.414Z,40.3
2018-05-09T08:48:28.513Z,40.4
2018-05-09T08:49:19.396Z,40.5
2018-05-09T08:50:08.906Z,40.6
2018-05-09T08:50:58.959Z,40.8
2018-05-09T08:51:48.745Z,40.9
2018-05-09T08:52:39.085Z,40.9
2018-05-09T08:53:29.161Z,41.1
2018-05-09T08:54:18.967Z,41.2
2018-05-09T08:55:09.007Z,41.3
2018-05-09T08:55:59.074Z,41.4
2018-05-09T08:56:49.149Z,41.5
2018-05-09T08:57:38.942Z,41.6
2018-05-09T08:58:29.581Z,41.7
2018-05-09T08:59:19.341Z,41.8
2018-05-09T09:00:09.124Z,41.9
2018-05-09T09:00:59.476Z,42.1
2018-05-09T09:01:48.266Z,42.1
2018-05-09T09:02:39.313Z,42.3
2018-05-09T09:03:29.938Z,42.4
2018-05-09T09:04:20.211Z,42.5
2018-05-09T09:05:09.208Z,42.6
2018-05-09T09:06:00.138Z,42.7
2018-05-09T09:06:49.911Z,42.8
2018-05-09T09:07:40.270Z,42.9
2018-05-09T09:08:30.290Z,43
2018-05-09T09:09:19.582Z,43.1
2018-05-09T09:10:09.990Z,43.2
2018-05-09T09:11:00.021Z,43.3
2018-05-09T09:11:50.583Z,43.4
2018-05-09T09:12:40.630Z,43.6
2018-05-09T09:13:30.405Z,43.6
2018-05-09T09:14:20.550Z,43.8
2018-05-09T09:15:10.817Z,43.9
2018-05-09T09:16:00.357Z,44
2018-05-09T09:16:50.662Z,44.1
2018-05-09T09:17:40.720Z,44.2
2018-05-09T09:18:31.189Z,44.3
2018-05-09T09:19:20.877Z,44.4
2018-05-09T09:20:11.237Z,44.5
2018-05-09T09:21:01.235Z,44.6
2018-05-09T09:21:51.440Z,44.7
2018-05-09T09:22:41.430Z,44.8
2018-05-09T09:23:30.926Z,44.9
2018-05-09T09:24:20.722Z,45.1
2018-05-09T09:25:10.499Z,45.1
2018-05-09T09:26:01.662Z,45.3
2018-05-09T09:26:51.728Z,45.4
2018-05-09T09:27:41.241Z,45.5
2018-05-09T09:28:31.571Z,45.6
2018-05-09T09:29:21.802Z,45.7
2018-05-09T09:30:12.053Z,45.8
2018-05-09T09:31:01.803Z,45.9
2018-05-09T09:31:51.859Z,46
2018-05-09T09:32:41.912Z,46.1
2018-05-09T09:33:32.284Z,46.2
2018-05-09T09:34:22.057Z,46.3
2018-05-09T09:35:11.851Z,46.4
2018-05-09T09:36:01.923Z,46.5
2018-05-09T09:36:52.534Z,46.6
2018-05-09T09:37:42.639Z,46.8
2018-05-09T09:38:32.367Z,46.8
2018-05-09T09:39:22.786Z,46.9
2018-05-09T09:40:12.809Z,47
2018-05-09T09:41:02.638Z,47.1
2018-05-09T09:41:52.995Z,47.3
2018-05-09T09:42:42.683Z,47.3
2018-05-09T09:43:33.027Z,47.4
2018-05-09T09:44:22.817Z,47.6
2018-05-09T09:45:13.129Z,47.6
2018-05-09T09:46:02.673Z,47.8
2018-05-09T09:46:53.252Z,47.8
2018-05-09T09:47:43.350Z,47.9
2018-05-09T09:48:33.143Z,48.1
2018-05-09T09:49:23.469Z,48.1
2018-05-09T09:50:13.521Z,48.3
2018-05-09T09:51:03.614Z,48.4
2018-05-09T09:51:53.094Z,48.4
2018-05-09T09:52:43.420Z,48.6
2018-05-09T09:53:33.815Z,48.6
2018-05-09T09:54:22.997Z,48.8
2018-05-09T09:55:13.667Z,48.9
2018-05-09T09:56:03.175Z,48.9
2018-05-09T09:56:54.041Z,49.1
2018-05-09T09:57:43.821Z,49.2
2018-05-09T09:58:33.952Z,49.3
2018-05-09T09:59:24.331Z,49.4
2018-05-09T10:00:13.732Z,49.5
2018-05-09T10:01:04.371Z,49.6
2018-05-09T10:01:54.421Z,49.7
2018-05-09T10:02:44.209Z,49.8
2018-05-09T10:03:34.315Z,49.9
2018-05-09T10:04:24.603Z,50
2018-05-09T10:05:14.707Z,50.1
2018-05-09T10:06:04.485Z,50.2
2018-05-09T10:06:54.798Z,50.3
2018-05-09T10:07:44.886Z,50.4
2018-05-09T10:08:34.668Z,50.5
2018-05-09T10:09:24.731Z,50.6
2018-05-09T10:10:14.789Z,50.7
2018-05-09T10:11:04.562Z,50.8
2018-05-09T10:11:54.636Z,50.9
2018-05-09T10:12:45.300Z,50.9
2018-05-09T10:13:35.351Z,51.1
2018-05-09T10:14:25.403Z,51.2
2018-05-09T10:15:14.892Z,51.3
2018-05-09T10:16:06.164Z,51.4
2018-05-09T10:16:55.298Z,51.5
2018-05-09T10:17:45.110Z,51.6
2018-05-09T10:18:35.708Z,51.6
2018-05-09T10:19:25.495Z,51.8
2018-05-09T10:20:15.849Z,51.8
2018-05-09T10:21:55.994Z,52.1
2018-05-09T10:22:46.049Z,52.1
2018-05-09T10:23:35.803Z,52.3
2018-05-09T10:24:25.883Z,52.3
2018-05-09T10:26:06.295Z,52.5
2018-05-09T10:26:55.855Z,52.6
2018-05-09T10:27:46.164Z,52.7
2018-05-09T10:28:36.205Z,52.8
2018-05-09T10:29:26.569Z,52.9
2018-05-09T10:30:16.054Z,52.9
2018-05-09T10:31:06.500Z,53
2018-05-09T10:31:56.887Z,53.1
2018-05-09T10:32:46.545Z,53.2
2018-05-09T10:33:36.625Z,53.3
2018-05-09T10:34:27.015Z,53.4
2018-05-09T10:35:16.502Z,53.5
2018-05-09T10:36:06.817Z,53.6
2018-05-09T10:36:56.102Z,53.7
2018-05-09T10:37:46.917Z,53.8
2018-05-09T10:38:37.260Z,53.8
2018-05-09T10:39:26.849Z,53.9
2018-05-09T10:40:17.394Z,54
2018-05-09T10:41:07.455Z,54.1
2018-05-09T10:41:57.552Z,54.2
2018-05-09T10:42:47.596Z,54.3
2018-05-09T10:43:37.640Z,54.3
2018-05-09T10:44:27.719Z,54.4
2018-05-09T10:45:17.840Z,54.6
2018-05-09T10:46:07.861Z,54.6
2018-05-09T10:46:57.913Z,54.7
2018-05-09T10:47:47.682Z,54.8
2018-05-09T10:48:38.063Z,54.9
2018-05-09T10:49:27.826Z,54.9
2018-05-09T10:50:18.169Z,55
2018-05-09T10:51:07.662Z,55.1
2018-05-09T10:51:57.997Z,55.2
2018-05-09T10:52:48.351Z,55.3
2018-05-09T10:53:38.450Z,55.3
2018-05-09T10:54:28.247Z,55.4
2018-05-09T10:55:18.519Z,55.5
2018-05-09T10:56:08.583Z,55.6
2018-05-09T10:56:58.399Z,55.7
2018-05-09T10:57:48.444Z,55.8
2018-05-09T10:58:38.519Z,55.8
2018-05-09T10:59:28.938Z,55.9
2018-05-09T11:00:18.925Z,56
2018-05-09T11:01:08.450Z,56.1
2018-05-09T11:01:58.796Z,56.1
2018-05-09T11:02:48.284Z,56.3
2018-05-09T11:03:38.930Z,56.3
2018-05-09T11:04:28.995Z,56.4
2018-05-09T11:05:19.050Z,56.5
2018-05-09T11:06:08.837Z,56.6
2018-05-09T11:06:58.917Z,56.6
2018-05-09T11:07:48.701Z,56.7
2018-05-09T11:08:39.028Z,56.8
2018-05-09T11:09:29.390Z,56.9
2018-05-09T11:10:19.462Z,56.9
2018-05-09T11:11:09.510Z,57.1
2018-05-09T11:11:59.849Z,57.1
2018-05-09T11:12:49.898Z,57.3
2018-05-09T11:13:39.960Z,57.3
2018-05-09T11:14:30.016Z,57.4
2018-05-09T11:15:20.070Z,57.4
2018-05-09T11:16:09.858Z,57.5
2018-05-09T11:16:59.924Z,57.6
2018-05-09T11:17:49.715Z,57.6
2018-05-09T11:18:39.784Z,57.7
2018-05-09T11:19:30.158Z,57.8
2018-05-09T11:20:20.202Z,57.8
2018-05-09T11:21:10.525Z,57.9
2018-05-09T11:22:00.365Z,58
2018-05-09T11:22:50.675Z,58.1
2018-05-09T11:23:40.523Z,58.1
2018-05-09T11:24:31.907Z,58.2
2018-05-09T11:25:20.572Z,58.3
2018-05-09T11:26:10.653Z,58.3
2018-05-09T11:27:00.717Z,58.4
2018-05-09T11:27:50.498Z,58.5
2018-05-09T11:29:30.895Z,58.6
2018-05-09T11:30:20.971Z,58.7
2018-05-09T11:31:11.328Z,58.8
2018-05-09T11:32:00.902Z,58.8
2018-05-09T11:32:51.187Z,58.9
2018-05-09T11:33:41.238Z,59
2018-05-09T11:34:31.646Z,59
2018-05-09T11:35:21.628Z,59.1
2018-05-09T11:36:10.861Z,59.2
2018-05-09T11:37:01.862Z,59.3
2018-05-09T11:37:51.279Z,59.3
2018-05-09T11:38:41.881Z,59.4
2018-05-09T11:39:31.666Z,59.4
2018-05-09T11:40:21.748Z,59.5
2018-05-09T11:41:11.804Z,59.6
2018-05-09T11:42:02.169Z,59.6
2018-05-09T11:42:51.942Z,59.7
2018-05-09T11:43:42.305Z,59.8
2018-05-09T11:44:32.366Z,59.8
2018-05-09T11:45:22.423Z,59.9
2018-05-09T11:46:12.514Z,59.9
2018-05-09T11:47:02.011Z,60
2018-05-09T11:47:52.301Z,60.1
2018-05-09T11:48:42.672Z,60.1
2018-05-09T11:49:31.908Z,60.2
2018-05-09T11:50:22.799Z,60.3
2018-05-09T11:51:12.613Z,60.3
2018-05-09T11:52:02.671Z,60.3
2018-05-09T11:52:52.440Z,60.4
2018-05-09T11:53:43.074Z,60.4
2018-05-09T11:54:32.837Z,60.5
2018-05-09T11:55:22.361Z,60.6
2018-05-09T11:56:12.696Z,60.6
2018-05-09T11:57:03.305Z,60.7
2018-05-09T11:57:53.113Z,60.8
2018-05-09T11:58:43.423Z,60.8
2018-05-09T11:59:33.500Z,60.9
2018-05-09T12:00:23.569Z,60.9
2018-05-09T12:01:13.642Z,61
2018-05-09T12:02:03.739Z,61
2018-05-09T12:02:53.207Z,61.1
2018-05-09T12:03:43.862Z,61.1
2018-05-09T12:04:33.609Z,61.2
2018-05-09T12:05:23.412Z,61.3
2018-05-09T12:06:13.859Z,61.3
2018-05-09T12:07:04.113Z,61.3
2018-05-09T12:07:53.620Z,61.4
2018-05-09T12:08:43.951Z,61.4
2018-05-09T12:09:33.734Z,61.5
2018-05-09T12:10:25.331Z,61.6
2018-05-09T12:11:14.434Z,61.6
2018-05-09T12:12:04.474Z,61.6
2018-05-09T12:12:53.992Z,61.7
2018-05-09T12:13:44.635Z,61.8
2018-05-09T12:14:34.115Z,61.8
2018-05-09T12:15:24.748Z,61.8
2018-05-09T12:16:13.957Z,61.9
2018-05-09T12:17:04.859Z,61.9
2018-05-09T12:17:54.929Z,62
2018-05-09T12:18:44.743Z,62
2018-05-09T12:19:34.503Z,62.1
2018-05-09T12:20:24.665Z,62.1
2018-05-09T12:21:14.391Z,62.2
2018-05-09T12:22:05.002Z,62.3
2018-05-09T12:22:55.143Z,62.3
2018-05-09T12:23:44.621Z,62.3
2018-05-09T12:24:36.161Z,62.4
2018-05-09T12:25:24.946Z,62.4
2018-05-09T12:26:15.597Z,62.4
2018-05-09T12:27:05.440Z,62.4
2018-05-09T12:27:55.436Z,62.5
2018-05-09T12:28:45.794Z,62.6
2018-05-09T12:29:35.855Z,62.6
2018-05-09T12:30:25.927Z,62.6
2018-05-09T12:31:15.688Z,62.7
2018-05-09T12:32:06.031Z,62.7
2018-05-09T12:32:56.124Z,62.8
2018-05-09T12:33:46.188Z,62.8
2018-05-09T12:34:36.225Z,62.8
2018-05-09T12:35:25.985Z,62.9
2018-05-09T12:36:16.165Z,62.9
2018-05-09T12:37:06.430Z,62.9
2018-05-09T12:37:56.455Z,63
2018-05-09T12:38:46.314Z,63
2018-05-09T12:39:36.345Z,63.1
2018-05-09T12:40:26.694Z,63.1
2018-05-09T12:41:16.492Z,63.1
2018-05-09T12:42:06.855Z,63.1
2018-05-09T12:42:56.324Z,63.2
2018-05-09T12:43:46.661Z,63.3
2018-05-09T12:44:36.751Z,63.3
2018-05-09T12:45:26.803Z,63.3
2018-05-09T12:46:16.834Z,63.3
2018-05-09T12:47:07.181Z,63.4
2018-05-09T12:47:57.255Z,63.4
2018-05-09T12:48:48.757Z,63.4
2018-05-09T12:49:36.542Z,63.4
2018-05-09T12:50:27.238Z,63.4
2018-05-09T12:51:16.956Z,63.5
2018-05-09T12:52:07.065Z,63.5
2018-05-09T12:52:56.779Z,63.6
2018-05-09T12:53:47.727Z,63.6
2018-05-09T12:54:38.199Z,63.6
2018-05-09T12:55:27.814Z,63.6
2018-05-09T12:56:17.892Z,63.7
2018-05-09T12:57:07.952Z,63.7
2018-05-09T12:57:58.037Z,63.7
2018-05-09T12:58:47.838Z,63.8
2018-05-09T12:59:38.139Z,63.8
2018-05-09T13:00:28.964Z,63.8
2018-05-09T13:01:17.729Z,63.8
2018-05-09T13:02:07.813Z,63.8
2018-05-09T13:02:58.175Z,63.9
2018-05-09T13:03:47.950Z,63.9
2018-05-09T13:04:38.594Z,63.9
2018-05-09T13:05:28.622Z,63.9
2018-05-09T13:06:18.723Z,63.9
2018-05-09T13:07:08.274Z,63.9
2018-05-09T13:07:57.770Z,64
2018-05-09T13:08:48.608Z,64
2018-05-09T13:09:38.969Z,64
2018-05-09T13:10:29.021Z,64
2018-05-09T13:11:18.900Z,64.1
2018-05-09T13:12:08.572Z,64.1
2018-05-09T13:12:59.223Z,64.1
2018-05-09T13:13:49.264Z,64.1